Terminal Aerodrome Forecast
Issued by NWS Charleston, WV

Current Version | Previous Version | Graphics & Text | Print | Product List | Glossary On
Versions: 1 2 3 4 5 6 7 8 9 10 11 12 13 14 15 16 17 18 19 20 21 22 23 24 25 26 27 28 29
000
FTUS41 KRLX 031521 AAA
TAFCRW
TAF AMD
KCRW 031521Z 0315/0412 13004KT P6SM BKN070
     FM031700 11003KT 6SM BR VCTS BKN025CB OVC070
     FM031900 24004KT 3SM TSRA OVC020CB
      TEMPO 0319/0321 2SM TSRA
     FM032200 24005KT 6SM SHRA OVC060
     FM040300 25005KT 5SM BR BKN015
     FM040800 24005KT 4SM BR BKN010=

USA.gov is the U.S. government's official web portal to all federal, state and local government web resources and services.